Time;durP1;ratioP1;P1;durP2;ratioP2;P2;SDS_P1;SDS_P2;PMS_P1;PMS_P2;Temp;Humidity;BMP_temperature;BMP_pressure;BME280_temperature;BME280_humidity;BME280_pressure;Samples;Min_cycle;Max_cycle;Signal;HPM_P1;HPM_P2
2020/04/13 00:00:06;;;;;;;7.25;6;;;;;;;14.09;50.99512;94866.36;;;;
2020/04/13 00:01:08;;;;;;;7.199999;6.15;;;;;;;14.07;51.04785;94867.58;;;;
2020/04/13 00:02:10;;;;;;;7.199999;6.15;;;;;;;14.07;51.04785;94867.58;;;;
2020/04/13 00:03:11;;;;;;;7.199999;6.15;;;;;;;14.07;51.04785;94867.58;;;;
2020/04/13 00:04:12;;;;;;;7.5;6;;;;;;;14.06;51.20898;94864.2;;;;
2020/04/13 00:05:12;;;;;;;7.5;6;;;;;;;14.06;51.20898;94864.2;;;;
2020/04/13 00:06:13;;;;;;;6.5;5.900001;;;;;;;14.05;51.19727;94866.62;;;;
2020/04/13 00:07:14;;;;;;;6.5;5.900001;;;;;;;14.05;51.19727;94866.62;;;;
2020/04/13 00:08:14;;;;;;;6.5;5.900001;;;;;;;14.05;51.19727;94866.62;;;;
2020/04/13 00:09:15;;;;;;;6.45;5.849999;;;;;;;14.04;51.30371;94872.74;;;;
2020/04/13 00:10:15;;;;;;;6.45;5.849999;;;;;;;14.04;51.30371;94872.74;;;;
2020/04/13 00:11:16;;;;;;;6.45;5.849999;;;;;;;14.04;51.30371;94872.74;;;;
2020/04/13 00:12:16;;;;;;;6.850001;6.05;;;;;;;14.03;51.29297;94867.42;;;;
2020/04/13 00:13:17;;;;;;;6.850001;6.05;;;;;;;14.03;51.29297;94867.42;;;;
2020/04/13 00:14:17;;;;;;;7.3;6.1;;;;;;;14.01;51.32324;94870.56;;;;
2020/04/13 00:15:17;;;;;;;7.3;6.1;;;;;;;14.01;51.32324;94870.56;;;;
2020/04/13 00:16:18;;;;;;;7.3;6.1;;;;;;;14.01;51.32324;94870.56;;;;
2020/04/13 00:17:19;;;;;;;6.45;5.85;;;;;;;13.99;51.29883;94870.01;;;;
2020/04/13 00:18:25;;;;;;;6.45;5.85;;;;;;;13.99;51.29883;94870.01;;;;
2020/04/13 00:19:31;;;;;;;6.599999;5.95;;;;;;;13.96;51.50195;94868.22;;;;
2020/04/13 00:20:32;;;;;;;6.599999;5.95;;;;;;;13.96;51.50195;94868.22;;;;
2020/04/13 00:21:32;;;;;;;6.599999;5.95;;;;;;;13.96;51.50195;94868.22;;;;
2020/04/13 00:22:33;;;;;;;6.5;5.9;;;;;;;13.93;51.37793;94861.56;;;;
2020/04/13 00:23:33;;;;;;;6.5;5.9;;;;;;;13.93;51.37793;94861.56;;;;
2020/04/13 00:24:34;;;;;;;6.4;5.8;;;;;;;13.89;51.41699;94863.59;;;;
2020/04/13 00:25:34;;;;;;;6.4;5.8;;;;;;;13.89;51.41699;94863.59;;;;
2020/04/13 00:26:34;;;;;;;6.4;5.8;;;;;;;13.89;51.41699;94863.59;;;;
2020/04/13 00:27:35;;;;;;;6.75;5.95;;;;;;;13.86;51.45605;94864.65;;;;
2020/04/13 00:28:35;;;;;;;6.75;5.95;;;;;;;13.86;51.45605;94864.65;;;;
2020/04/13 00:29:36;;;;;;;6.75;5.95;;;;;;;13.86;51.45605;94864.65;;;;
2020/04/13 00:30:37;;;;;;;6.649999;6.05;;;;;;;13.82;51.66895;94859.48;;;;
2020/04/13 00:31:37;;;;;;;6.649999;6.05;;;;;;;13.82;51.66895;94859.48;;;;
2020/04/13 00:32:38;;;;;;;6.1;5.5;;;;;;;13.79;51.61133;94863.56;;;;
2020/04/13 00:33:38;;;;;;;6.1;5.5;;;;;;;13.79;51.61133;94863.56;;;;
2020/04/13 00:34:40;;;;;;;6.1;5.5;;;;;;;13.79;51.61133;94863.56;;;;
2020/04/13 00:35:40;;;;;;;6.45;5.849999;;;;;;;13.78;51.63184;94856.11;;;;
2020/04/13 00:36:41;;;;;;;6.45;5.849999;;;;;;;13.78;51.63184;94856.11;;;;
2020/04/13 00:37:41;;;;;;;6.45;5.849999;;;;;;;13.78;51.63184;94856.11;;;;
2020/04/13 00:38:41;;;;;;;7.5;5.900001;;;;;;;13.78;51.57715;94850.27;;;;
2020/04/13 00:39:42;;;;;;;7.5;5.900001;;;;;;;13.78;51.57715;94850.27;;;;
2020/04/13 00:40:43;;;;;;;6.7;6.05;;;;;;;13.78;51.62109;94850.27;;;;
2020/04/13 00:41:43;;;;;;;6.7;6.05;;;;;;;13.78;51.62109;94850.27;;;;
2020/04/13 00:42:44;;;;;;;6.7;6.05;;;;;;;13.78;51.62109;94850.27;;;;
2020/04/13 00:43:44;;;;;;;6.55;5.95;;;;;;;13.78;51.61133;94839.26;;;;
2020/04/13 00:44:45;;;;;;;6.55;5.95;;;;;;;13.78;51.61133;94839.26;;;;
2020/04/13 00:45:45;;;;;;;7.05;6.05;;;;;;;13.8;51.70996;94850.82;;;;
2020/04/13 00:46:46;;;;;;;7.05;6.05;;;;;;;13.8;51.70996;94850.82;;;;
2020/04/13 00:47:47;;;;;;;7.05;6.05;;;;;;;13.8;51.70996;94850.82;;;;
2020/04/13 00:48:47;;;;;;;6.55;5.95;;;;;;;13.81;51.81934;94869.12;;;;
2020/04/13 00:49:48;;;;;;;6.55;5.95;;;;;;;13.81;51.81934;94869.12;;;;
2020/04/13 00:50:48;;;;;;;6.55;5.95;;;;;;;13.81;51.81934;94869.12;;;;
2020/04/13 00:51:49;;;;;;;6.9;6.05;;;;;;;13.83;51.93164;94869.69;;;;
2020/04/13 00:52:49;;;;;;;6.9;6.05;;;;;;;13.83;51.93164;94869.69;;;;
2020/04/13 00:53:49;;;;;;;6.9;6.05;;;;;;;13.83;51.93164;94869.69;;;;
2020/04/13 00:54:50;;;;;;;6.9;6.05;;;;;;;13.83;51.93164;94869.69;;;;
2020/04/13 00:55:51;;;;;;;6.9;6.05;;;;;;;13.83;51.93164;94869.69;;;;
2020/04/13 00:56:51;;;;;;;6.9;6.05;;;;;;;13.83;51.93164;94869.69;;;;
2020/04/13 00:57:51;;;;;;;6.9;6.05;;;;;;;13.83;51.93164;94869.69;;;;
2020/04/13 00:58:52;;;;;;;6.9;6.05;;;;;;;13.83;51.93164;94869.69;;;;
2020/04/13 00:59:52;;;;;;;6.9;6.05;;;;;;;13.83;51.93164;94869.69;;;;
2020/04/13 01:02:04;;;;;;;6.9;6.05;;;;;;;13.83;51.93164;94869.69;;;;
2020/04/13 01:03:05;;;;;;;7.15;6.45;;;;;;;13.57;51.39063;94853.02;;;;
2020/04/13 01:04:05;;;;;;;7.15;6.45;;;;;;;13.57;51.39063;94853.02;;;;
2020/04/13 01:05:06;;;;;;;6.799999;6.249999;;;;;;;13.57;52.00879;94851.12;;;;
2020/04/13 01:06:07;;;;;;;6.799999;6.249999;;;;;;;13.57;52.00879;94851.12;;;;
2020/04/13 01:07:07;;;;;;;6.85;6.2;;;;;;;13.64;52.39648;94844.09;;;;
2020/04/13 01:08:08;;;;;;;6.85;6.2;;;;;;;13.64;52.39648;94844.09;;;;
2020/04/13 01:09:08;;;;;;;6.85;6.2;;;;;;;13.64;52.39648;94844.09;;;;
2020/04/13 01:10:10;;;;;;;6.900001;6.2;;;;;;;13.69;52.5332;94840.44;;;;
2020/04/13 01:11:10;;;;;;;6.900001;6.2;;;;;;;13.69;52.5332;94840.44;;;;
2020/04/13 01:12:11;;;;;;;6.900001;6.2;;;;;;;13.69;52.5332;94840.44;;;;
2020/04/13 01:13:11;;;;;;;6.900001;6.2;;;;;;;13.69;52.5332;94840.44;;;;
2020/04/13 01:14:11;;;;;;;6.900001;6.2;;;;;;;13.69;52.5332;94840.44;;;;
2020/04/13 01:15:12;;;;;;;7.349999;6.65;;;;;;;13.85;52.56348;94847.97;;;;
2020/04/13 01:16:12;;;;;;;7.349999;6.65;;;;;;;13.85;52.56348;94847.97;;;;
2020/04/13 01:17:13;;;;;;;7.349999;6.65;;;;;;;13.85;52.56348;94847.97;;;;
2020/04/13 01:18:13;;;;;;;7.8;6.4;;;;;;;13.91;52.58105;94846.09;;;;
2020/04/13 01:19:14;;;;;;;7.8;6.4;;;;;;;13.91;52.58105;94846.09;;;;
2020/04/13 01:20:15;;;;;;;7.8;6.4;;;;;;;13.91;52.58105;94846.09;;;;
2020/04/13 01:21:15;;;;;;;7.100001;6.5;;;;;;;13.91;52.71094;94836.58;;;;
2020/04/13 01:22:16;;;;;;;7.100001;6.5;;;;;;;13.91;52.71094;94836.58;;;;
2020/04/13 01:23:16;;;;;;;7.100001;6.5;;;;;;;13.91;52.71094;94836.58;;;;
2020/04/13 01:24:17;;;;;;;7.100001;6.5;;;;;;;13.91;52.71094;94836.58;;;;
2020/04/13 01:25:17;;;;;;;7.100001;6.5;;;;;;;13.91;52.71094;94836.58;;;;
2020/04/13 01:26:18;;;;;;;7.100001;6.5;;;;;;;13.91;52.71094;94836.58;;;;
2020/04/13 01:27:19;;;;;;;7.100001;6.5;;;;;;;13.91;52.71094;94836.58;;;;
2020/04/13 01:28:19;;;;;;;7.100001;6.5;;;;;;;13.91;52.71094;94836.58;;;;
2020/04/13 01:29:19;;;;;;;7.100001;6.5;;;;;;;13.91;52.71094;94836.58;;;;
2020/04/13 01:30:20;;;;;;;7.100001;6.5;;;;;;;13.91;52.71094;94836.58;;;;
2020/04/13 01:31:21;;;;;;;6.65;6;;;;;;;13.58;51.99902;94832.01;;;;
2020/04/13 01:32:23;;;;;;;6.65;6;;;;;;;13.58;51.99902;94832.01;;;;
2020/04/13 01:33:24;;;;;;;6.65;6;;;;;;;13.58;51.99902;94832.01;;;;
2020/04/13 01:34:24;;;;;;;7.599999;6.800001;;;;;;;13.58;52.76855;94823.47;;;;
2020/04/13 01:35:25;;;;;;;7.599999;6.800001;;;;;;;13.58;52.76855;94823.47;;;;
2020/04/13 01:36:25;;;;;;;7.599999;6.800001;;;;;;;13.58;52.76855;94823.47;;;;
2020/04/13 01:37:26;;;;;;;7.599999;6.800001;;;;;;;13.58;52.76855;94823.47;;;;
2020/04/13 01:38:26;;;;;;;7.599999;6.800001;;;;;;;13.58;52.76855;94823.47;;;;
2020/04/13 01:39:27;;;;;;;7.599999;6.800001;;;;;;;13.58;52.76855;94823.47;;;;
2020/04/13 01:40:28;;;;;;;7.599999;6.800001;;;;;;;13.58;52.76855;94823.47;;;;
2020/04/13 01:41:28;;;;;;;7.599999;6.800001;;;;;;;13.58;52.76855;94823.47;;;;
2020/04/13 01:42:29;;;;;;;7.599999;6.800001;;;;;;;13.58;52.76855;94823.47;;;;
2020/04/13 01:43:29;;;;;;;7.599999;6.800001;;;;;;;13.58;52.76855;94823.47;;;;
2020/04/13 01:44:30;;;;;;;7.25;6.65;;;;;;;13.41;52.07617;94837.22;;;;
2020/04/13 01:45:30;;;;;;;7.25;6.65;;;;;;;13.41;52.07617;94837.22;;;;
2020/04/13 01:46:31;;;;;;;7.25;6.65;;;;;;;13.41;52.07617;94837.22;;;;
2020/04/13 01:47:31;;;;;;;6.9;6.25;;;;;;;13.43;52.84766;94847.8;;;;
2020/04/13 01:48:32;;;;;;;6.9;6.25;;;;;;;13.43;52.84766;94847.8;;;;
2020/04/13 01:49:32;;;;;;;7;6.3;;;;;;;13.49;53.04102;94842.69;;;;
2020/04/13 01:50:33;;;;;;;7;6.3;;;;;;;13.49;53.04102;94842.69;;;;
2020/04/13 01:51:33;;;;;;;7;6.3;;;;;;;13.49;53.04102;94842.69;;;;
2020/04/13 01:52:34;;;;;;;6.900001;6.299999;;;;;;;13.55;53.45898;94836.6;;;;
2020/04/13 01:53:34;;;;;;;6.900001;6.299999;;;;;;;13.55;53.45898;94836.6;;;;
2020/04/13 01:54:34;;;;;;;6.900001;6.299999;;;;;;;13.55;53.45898;94836.6;;;;
2020/04/13 01:55:35;;;;;;;6.900001;6.299999;;;;;;;13.55;53.45898;94836.6;;;;
2020/04/13 01:56:35;;;;;;;6.900001;6.299999;;;;;;;13.55;53.45898;94836.6;;;;
2020/04/13 01:57:36;;;;;;;6.900001;6.299999;;;;;;;13.55;53.45898;94836.6;;;;
2020/04/13 01:58:36;;;;;;;6.900001;6.299999;;;;;;;13.55;53.45898;94836.6;;;;
2020/04/13 01:59:37;;;;;;;6.900001;6.299999;;;;;;;13.55;53.45898;94836.6;;;;
2020/04/13 02:00:37;;;;;;;6.900001;6.299999;;;;;;;13.55;53.45898;94836.6;;;;
2020/04/13 02:01:39;;;;;;;6.900001;6.299999;;;;;;;13.55;53.45898;94836.6;;;;
2020/04/13 02:02:39;;;;;;;7.050001;6.45;;;;;;;13.4;52.62793;94807.51;;;;
2020/04/13 02:03:41;;;;;;;7.050001;6.45;;;;;;;13.4;52.62793;94807.51;;;;
2020/04/13 02:04:42;;;;;;;7.050001;6.45;;;;;;;13.4;52.62793;94807.51;;;;
2020/04/13 02:05:43;;;;;;;7.199999;6.5;;;;;;;13.41;53.26953;94813.23;;;;
2020/04/13 02:06:43;;;;;;;7.199999;6.5;;;;;;;13.41;53.26953;94813.23;;;;
2020/04/13 02:07:44;;;;;;;7.199999;6.5;;;;;;;13.41;53.26953;94813.23;;;;
2020/04/13 02:08:45;;;;;;;7.55;6.749999;;;;;;;13.48;53.54785;94808.48;;;;
2020/04/13 02:09:45;;;;;;;7.55;6.749999;;;;;;;13.48;53.54785;94808.48;;;;
2020/04/13 02:10:48;;;;;;;7;6.3;;;;;;;13.53;53.69531;94813.93;;;;
2020/04/13 02:11:49;;;;;;;7;6.3;;;;;;;13.53;53.69531;94813.93;;;;
2020/04/13 02:12:49;;;;;;;7;6.3;;;;;;;13.53;53.69531;94813.93;;;;
2020/04/13 02:13:50;;;;;;;7;6.3;;;;;;;13.53;53.69531;94813.93;;;;
2020/04/13 02:14:50;;;;;;;7;6.3;;;;;;;13.53;53.69531;94813.93;;;;
2020/04/13 02:15:50;;;;;;;7;6.3;;;;;;;13.53;53.69531;94813.93;;;;
2020/04/13 02:16:53;;;;;;;7;6.3;;;;;;;13.53;53.69531;94813.93;;;;
2020/04/13 02:17:53;;;;;;;7;6.3;;;;;;;13.53;53.69531;94813.93;;;;
2020/04/13 02:18:54;;;;;;;7;6.3;;;;;;;13.53;53.69531;94813.93;;;;
2020/04/13 02:19:54;;;;;;;7;6.3;;;;;;;13.53;53.69531;94813.93;;;;
2020/04/13 02:20:55;;;;;;;7;6.3;;;;;;;13.53;53.69531;94813.93;;;;
2020/04/13 02:21:55;;;;;;;7;6.4;;;;;;;13.21;52.84375;94814.06;;;;
2020/04/13 02:22:56;;;;;;;7;6.4;;;;;;;13.21;52.84375;94814.06;;;;
2020/04/13 02:23:56;;;;;;;7.8;6.400001;;;;;;;13.16;53.37988;94812.69;;;;
2020/04/13 02:24:57;;;;;;;7.8;6.400001;;;;;;;13.16;53.37988;94812.69;;;;
2020/04/13 02:25:57;;;;;;;7.8;6.400001;;;;;;;13.16;53.37988;94812.69;;;;
2020/04/13 02:26:57;;;;;;;7.8;6.400001;;;;;;;13.16;53.37988;94812.69;;;;
2020/04/13 02:27:58;;;;;;;7.8;6.400001;;;;;;;13.16;53.37988;94812.69;;;;
2020/04/13 02:28:58;;;;;;;7.8;6.400001;;;;;;;13.16;53.37988;94812.69;;;;
2020/04/13 02:30:06;;;;;;;7.8;6.400001;;;;;;;13.16;53.37988;94812.69;;;;
2020/04/13 02:31:28;;;;;;;7.8;6.400001;;;;;;;13.16;53.37988;94812.69;;;;
2020/04/13 02:37:50;;;;;;;7.05;6.4;;;;;;;12.68;53.78516;94822.39;;;;
2020/04/13 02:38:56;;;;;;;7.05;6.4;;;;;;;12.68;53.78516;94822.39;;;;
2020/04/13 02:40:01;;;;;;;7.05;6.4;;;;;;;12.68;53.78516;94822.39;;;;
2020/04/13 02:41:02;;;;;;;7.05;6.4;;;;;;;12.68;53.78516;94822.39;;;;
2020/04/13 02:42:03;;;;;;;7.05;6.4;;;;;;;12.68;53.78516;94822.39;;;;
2020/04/13 02:43:03;;;;;;;7.05;6.4;;;;;;;12.68;53.78516;94822.39;;;;
2020/04/13 02:44:04;;;;;;;7.05;6.4;;;;;;;12.68;53.78516;94822.39;;;;
2020/04/13 02:45:04;;;;;;;7.05;6.4;;;;;;;12.68;53.78516;94822.39;;;;
2020/04/13 02:46:05;;;;;;;7.05;6.4;;;;;;;12.68;53.78516;94822.39;;;;
2020/04/13 02:47:05;;;;;;;7.05;6.4;;;;;;;12.68;53.78516;94822.39;;;;
2020/04/13 02:48:06;;;;;;;7.1;6.500001;;;;;;;12.3;53.51172;94836.15;;;;
2020/04/13 02:49:06;;;;;;;7.1;6.500001;;;;;;;12.3;53.51172;94836.15;;;;
2020/04/13 02:50:07;;;;;;;7.1;6.500001;;;;;;;12.3;53.51172;94836.15;;;;
2020/04/13 02:51:07;;;;;;;7.249999;6.550001;;;;;;;12.27;54.51367;94841.11;;;;
2020/04/13 02:52:08;;;;;;;7.249999;6.550001;;;;;;;12.27;54.51367;94841.11;;;;
2020/04/13 02:53:08;;;;;;;7.55;6.8;;;;;;;12.3;55.06836;94849.69;;;;
2020/04/13 02:54:08;;;;;;;7.55;6.8;;;;;;;12.3;55.06836;94849.69;;;;
2020/04/13 02:55:09;;;;;;;7.55;6.8;;;;;;;12.3;55.06836;94849.69;;;;
2020/04/13 02:56:09;;;;;;;7.8;7;;;;;;;12.31;55.52344;94854.01;;;;
2020/04/13 02:57:10;;;;;;;7.8;7;;;;;;;12.31;55.52344;94854.01;;;;
2020/04/13 02:58:10;;;;;;;7.8;7;;;;;;;12.31;55.52344;94854.01;;;;
2020/04/13 02:59:11;;;;;;;7.8;7;;;;;;;12.31;55.52344;94854.01;;;;
2020/04/13 03:00:11;;;;;;;7.8;7;;;;;;;12.31;55.52344;94854.01;;;;
2020/04/13 03:01:12;;;;;;;7.8;7;;;;;;;12.31;55.52344;94854.01;;;;
2020/04/13 03:02:12;;;;;;;7.8;7;;;;;;;12.31;55.52344;94854.01;;;;
2020/04/13 03:03:13;;;;;;;7.8;7;;;;;;;12.31;55.52344;94854.01;;;;
2020/04/13 03:04:13;;;;;;;7.8;7;;;;;;;12.31;55.52344;94854.01;;;;
2020/04/13 03:05:13;;;;;;;7.8;7;;;;;;;12.31;55.52344;94854.01;;;;
2020/04/13 03:06:14;;;;;;;7.5;6.799999;;;;;;;11.87;54.88574;94853.74;;;;
2020/04/13 03:07:15;;;;;;;7.5;6.799999;;;;;;;11.87;54.88574;94853.74;;;;
2020/04/13 03:08:15;;;;;;;7.5;6.799999;;;;;;;11.87;54.88574;94853.74;;;;
2020/04/13 03:09:16;;;;;;;7.4;6.7;;;;;;;11.81;55.88184;94849.74;;;;
2020/04/13 03:10:17;;;;;;;7.4;6.7;;;;;;;11.81;55.88184;94849.74;;;;
2020/04/13 03:11:17;;;;;;;7.4;6.7;;;;;;;11.81;55.88184;94849.74;;;;
2020/04/13 03:12:18;;;;;;;7.2;6.55;;;;;;;11.81;56.52832;94845.79;;;;
2020/04/13 03:13:21;;;;;;;7.2;6.55;;;;;;;11.81;56.52832;94845.79;;;;
2020/04/13 03:14:29;;;;;;;7.9;7.1;;;;;;;11.77;57.08398;94836.02;;;;
2020/04/13 03:15:42;;;;;;;7.9;7.1;;;;;;;11.77;57.08398;94836.02;;;;
2020/04/13 03:16:52;;;;;;;7.9;7.1;;;;;;;11.77;57.08398;94836.02;;;;
2020/04/13 03:18:03;;;;;;;7.9;7.1;;;;;;;11.77;57.08398;94836.02;;;;
2020/04/13 03:19:10;;;;;;;7.9;7.1;;;;;;;11.77;57.08398;94836.02;;;;
2020/04/13 03:20:17;;;;;;;7.9;7.1;;;;;;;11.77;57.08398;94836.02;;;;
2020/04/13 03:21:23;;;;;;;7.9;7.1;;;;;;;11.77;57.08398;94836.02;;;;
2020/04/13 03:22:24;;;;;;;7.9;7.1;;;;;;;11.77;57.08398;94836.02;;;;
2020/04/13 03:23:24;;;;;;;7.9;7.1;;;;;;;11.77;57.08398;94836.02;;;;
2020/04/13 03:24:25;;;;;;;7.9;7.1;;;;;;;11.77;57.08398;94836.02;;;;
2020/04/13 03:25:25;;;;;;;7.250001;6.65;;;;;;;11.18;56.38281;94828.27;;;;
2020/04/13 03:26:26;;;;;;;7.250001;6.65;;;;;;;11.18;56.38281;94828.27;;;;
2020/04/13 03:27:26;;;;;;;8.200001;7.1;;;;;;;11.1;57.56738;94827.33;;;;
2020/04/13 03:28:27;;;;;;;8.200001;7.1;;;;;;;11.1;57.56738;94827.33;;;;
2020/04/13 03:29:27;;;;;;;8.200001;7.1;;;;;;;11.1;57.56738;94827.33;;;;
2020/04/13 03:30:27;;;;;;;8.200001;7.1;;;;;;;11.1;57.56738;94827.33;;;;
2020/04/13 03:31:28;;;;;;;8.200001;7.1;;;;;;;11.1;57.56738;94827.33;;;;
2020/04/13 03:32:28;;;;;;;8.200001;7.1;;;;;;;11.1;57.56738;94827.33;;;;
2020/04/13 03:33:28;;;;;;;8.200001;7.1;;;;;;;11.1;57.56738;94827.33;;;;
2020/04/13 03:34:29;;;;;;;8.200001;7.1;;;;;;;11.1;57.56738;94827.33;;;;
2020/04/13 03:35:29;;;;;;;8.200001;7.1;;;;;;;11.1;57.56738;94827.33;;;;
2020/04/13 03:36:30;;;;;;;8.200001;7.1;;;;;;;11.1;57.56738;94827.33;;;;
2020/04/13 03:37:30;;;;;;;8.200001;7.1;;;;;;;11.1;57.56738;94827.33;;;;
2020/04/13 03:38:31;;;;;;;7.6;6.95;;;;;;;10.64;57.17285;94829.63;;;;
2020/04/13 03:39:31;;;;;;;7.6;6.95;;;;;;;10.64;57.17285;94829.63;;;;
2020/04/13 03:40:32;;;;;;;7.6;6.95;;;;;;;10.64;57.17285;94829.63;;;;
2020/04/13 03:41:32;;;;;;;7.9;6.900001;;;;;;;10.59;58.44629;94831.33;;;;
2020/04/13 03:42:33;;;;;;;7.9;6.900001;;;;;;;10.59;58.44629;94831.33;;;;
2020/04/13 03:43:33;;;;;;;7.9;6.900001;;;;;;;10.59;58.44629;94831.33;;;;
2020/04/13 03:44:33;;;;;;;7.9;6.900001;;;;;;;10.59;58.44629;94831.33;;;;
2020/04/13 03:45:34;;;;;;;7.9;6.900001;;;;;;;10.59;58.44629;94831.33;;;;
2020/04/13 03:46:34;;;;;;;7.9;6.900001;;;;;;;10.59;58.44629;94831.33;;;;
2020/04/13 03:47:35;;;;;;;7.9;6.900001;;;;;;;10.59;58.44629;94831.33;;;;
2020/04/13 03:48:35;;;;;;;7.9;6.900001;;;;;;;10.59;58.44629;94831.33;;;;
2020/04/13 03:49:36;;;;;;;7.9;6.900001;;;;;;;10.59;58.44629;94831.33;;;;
2020/04/13 03:50:36;;;;;;;7.9;6.900001;;;;;;;10.59;58.44629;94831.33;;;;
2020/04/13 03:51:43;;;;;;;7.849999;7.15;;;;;;;10.3;57.97852;94836;;;;
2020/04/13 03:52:44;;;;;;;7.849999;7.15;;;;;;;10.3;57.97852;94836;;;;
2020/04/13 03:53:44;;;;;;;7.849999;7.15;;;;;;;10.3;57.97852;94836;;;;
2020/04/13 03:54:44;;;;;;;7.9;7.2;;;;;;;10.3;59.20215;94834.23;;;;
2020/04/13 03:55:45;;;;;;;7.9;7.2;;;;;;;10.3;59.20215;94834.23;;;;
2020/04/13 03:56:45;;;;;;;7.9;7.2;;;;;;;10.3;59.20215;94834.23;;;;
2020/04/13 03:57:46;;;;;;;7.9;7.2;;;;;;;10.3;59.20215;94834.23;;;;
2020/04/13 03:58:46;;;;;;;7.9;7.2;;;;;;;10.3;59.20215;94834.23;;;;
2020/04/13 03:59:47;;;;;;;7.9;7.2;;;;;;;10.3;59.20215;94834.23;;;;
2020/04/13 04:00:47;;;;;;;7.9;7.2;;;;;;;10.3;59.20215;94834.23;;;;
2020/04/13 04:01:48;;;;;;;7.9;7.2;;;;;;;10.3;59.20215;94834.23;;;;
2020/04/13 04:02:48;;;;;;;7.9;7.2;;;;;;;10.3;59.20215;94834.23;;;;
2020/04/13 04:03:49;;;;;;;7.9;7.2;;;;;;;10.3;59.20215;94834.23;;;;
2020/04/13 04:04:49;;;;;;;8.25;7.400001;;;;;;;10.1;58.58496;94832.12;;;;
2020/04/13 04:05:50;;;;;;;8.25;7.400001;;;;;;;10.1;58.58496;94832.12;;;;
2020/04/13 04:06:50;;;;;;;8.25;7.400001;;;;;;;10.1;58.58496;94832.12;;;;
2020/04/13 04:07:50;;;;;;;8.1;7.3;;;;;;;10.12;59.80078;94825.44;;;;
2020/04/13 04:08:51;;;;;;;8.1;7.3;;;;;;;10.12;59.80078;94825.44;;;;
2020/04/13 04:09:51;;;;;;;8.1;7.3;;;;;;;10.12;59.80078;94825.44;;;;
2020/04/13 04:10:52;;;;;;;8.1;7.3;;;;;;;10.12;59.80078;94825.44;;;;
2020/04/13 04:11:52;;;;;;;8.1;7.3;;;;;;;10.12;59.80078;94825.44;;;;
2020/04/13 04:12:53;;;;;;;8.1;7.3;;;;;;;10.12;59.80078;94825.44;;;;
2020/04/13 04:13:53;;;;;;;8.1;7.3;;;;;;;10.12;59.80078;94825.44;;;;
2020/04/13 04:14:53;;;;;;;8.1;7.3;;;;;;;10.12;59.80078;94825.44;;;;
2020/04/13 04:15:54;;;;;;;8.1;7.3;;;;;;;10.12;59.80078;94825.44;;;;
2020/04/13 04:16:54;;;;;;;8.1;7.3;;;;;;;10.12;59.80078;94825.44;;;;
2020/04/13 04:17:55;;;;;;;8.050001;7.249999;;;;;;;10.01;59.02344;94817.78;;;;
2020/04/13 04:18:55;;;;;;;8.050001;7.249999;;;;;;;10.01;59.02344;94817.78;;;;
2020/04/13 04:19:55;;;;;;;8.050001;7.249999;;;;;;;10.01;59.02344;94817.78;;;;
2020/04/13 04:20:56;;;;;;;8.050001;7.249999;;;;;;;10.01;59.02344;94817.78;;;;
2020/04/13 04:21:56;;;;;;;8.050001;7.249999;;;;;;;10.01;59.02344;94817.78;;;;
2020/04/13 04:22:57;;;;;;;8.050001;7.249999;;;;;;;10.01;59.02344;94817.78;;;;
2020/04/13 04:23:57;;;;;;;8.050001;7.249999;;;;;;;10.01;59.02344;94817.78;;;;
2020/04/13 04:24:58;;;;;;;8.050001;7.249999;;;;;;;10.01;59.02344;94817.78;;;;
2020/04/13 04:25:58;;;;;;;8.050001;7.249999;;;;;;;10.01;59.02344;94817.78;;;;
2020/04/13 04:26:59;;;;;;;8.050001;7.249999;;;;;;;10.01;59.02344;94817.78;;;;
2020/04/13 04:27:59;;;;;;;8.050001;7.249999;;;;;;;10.01;59.02344;94817.78;;;;
2020/04/13 04:28:59;;;;;;;8.1;7.4;;;;;;;9.93;58.76563;94806.86;;;;
2020/04/13 04:30:00;;;;;;;8.1;7.4;;;;;;;9.93;58.76563;94806.86;;;;
2020/04/13 04:31:00;;;;;;;8.1;7.4;;;;;;;9.93;58.76563;94806.86;;;;
2020/04/13 04:32:02;;;;;;;8.1;7.4;;;;;;;9.93;58.76563;94806.86;;;;
2020/04/13 04:33:02;;;;;;;8.1;7.4;;;;;;;9.93;58.76563;94806.86;;;;
2020/04/13 04:34:03;;;;;;;8.1;7.4;;;;;;;9.93;58.76563;94806.86;;;;
2020/04/13 04:35:03;;;;;;;8.1;7.4;;;;;;;9.93;58.76563;94806.86;;;;
2020/04/13 04:36:04;;;;;;;8.1;7.4;;;;;;;9.93;58.76563;94806.86;;;;
2020/04/13 04:37:04;;;;;;;8.1;7.4;;;;;;;9.93;58.76563;94806.86;;;;
2020/04/13 04:38:04;;;;;;;8.1;7.4;;;;;;;9.93;58.76563;94806.86;;;;
2020/04/13 04:39:05;;;;;;;7.699998;7;;;;;;;9.88;58.72559;94817.16;;;;
2020/04/13 04:40:05;;;;;;;7.699998;7;;;;;;;9.88;58.72559;94817.16;;;;
2020/04/13 04:41:06;;;;;;;7.699998;7;;;;;;;9.88;58.72559;94817.16;;;;
2020/04/13 04:42:06;;;;;;;7.849999;7.149999;;;;;;;9.93;60.06543;94816.72;;;;
2020/04/13 04:43:07;;;;;;;7.849999;7.149999;;;;;;;9.93;60.06543;94816.72;;;;
2020/04/13 04:44:07;;;;;;;7.849999;7.149999;;;;;;;9.93;60.06543;94816.72;;;;
2020/04/13 04:45:07;;;;;;;7.849999;7.149999;;;;;;;9.93;60.06543;94816.72;;;;
2020/04/13 04:46:09;;;;;;;7.849999;7.149999;;;;;;;9.93;60.06543;94816.72;;;;
2020/04/13 04:47:09;;;;;;;7.849999;7.149999;;;;;;;9.93;60.06543;94816.72;;;;
2020/04/13 04:48:10;;;;;;;7.849999;7.149999;;;;;;;9.93;60.06543;94816.72;;;;
2020/04/13 04:49:10;;;;;;;7.849999;7.149999;;;;;;;9.93;60.06543;94816.72;;;;
2020/04/13 04:50:11;;;;;;;7.849999;7.149999;;;;;;;9.93;60.06543;94816.72;;;;
2020/04/13 04:51:11;;;;;;;7.849999;7.149999;;;;;;;9.93;60.06543;94816.72;;;;
2020/04/13 04:52:11;;;;;;;7.849999;7.149999;;;;;;;9.93;60.06543;94816.72;;;;
2020/04/13 04:53:12;;;;;;;8.000001;7.199999;;;;;;;9.93;59.37793;94808.76;;;;
2020/04/13 04:54:12;;;;;;;8.000001;7.199999;;;;;;;9.93;59.37793;94808.76;;;;
2020/04/13 04:55:13;;;;;;;8.000001;7.199999;;;;;;;9.93;59.37793;94808.76;;;;
2020/04/13 04:56:13;;;;;;;8.000001;7.199999;;;;;;;9.93;59.37793;94808.76;;;;
2020/04/13 04:57:14;;;;;;;8.000001;7.199999;;;;;;;9.93;59.37793;94808.76;;;;
2020/04/13 04:58:14;;;;;;;8.000001;7.199999;;;;;;;9.93;59.37793;94808.76;;;;
2020/04/13 04:59:15;;;;;;;8.000001;7.199999;;;;;;;9.93;59.37793;94808.76;;;;
2020/04/13 05:00:15;;;;;;;8.000001;7.199999;;;;;;;9.93;59.37793;94808.76;;;;
2020/04/13 05:01:16;;;;;;;8.000001;7.199999;;;;;;;9.93;59.37793;94808.76;;;;
2020/04/13 05:02:16;;;;;;;8.000001;7.199999;;;;;;;9.93;59.37793;94808.76;;;;
2020/04/13 05:03:16;;;;;;;9.15;7.149999;;;;;;;10;59.0752;94825.61;;;;
2020/04/13 05:04:17;;;;;;;9.15;7.149999;;;;;;;10;59.0752;94825.61;;;;
2020/04/13 05:05:17;;;;;;;9.15;7.149999;;;;;;;10;59.0752;94825.61;;;;
2020/04/13 05:06:18;;;;;;;9.15;7.149999;;;;;;;10;59.0752;94825.61;;;;
2020/04/13 05:07:18;;;;;;;9.15;7.149999;;;;;;;10;59.0752;94825.61;;;;
2020/04/13 05:08:19;;;;;;;9.15;7.149999;;;;;;;10;59.0752;94825.61;;;;
2020/04/13 05:09:19;;;;;;;9.15;7.149999;;;;;;;10;59.0752;94825.61;;;;
2020/04/13 05:10:19;;;;;;;9.15;7.149999;;;;;;;10;59.0752;94825.61;;;;
2020/04/13 05:11:20;;;;;;;9.15;7.149999;;;;;;;10;59.0752;94825.61;;;;
2020/04/13 05:12:20;;;;;;;9.15;7.149999;;;;;;;10;59.0752;94825.61;;;;
2020/04/13 05:13:21;;;;;;;9.15;7.149999;;;;;;;10;59.0752;94825.61;;;;
2020/04/13 05:14:21;;;;;;;8.05;7.25;;;;;;;10.08;58.96875;94816.58;;;;
2020/04/13 05:15:22;;;;;;;8.05;7.25;;;;;;;10.08;58.96875;94816.58;;;;
2020/04/13 05:16:22;;;;;;;8.05;7.25;;;;;;;10.08;58.96875;94816.58;;;;
2020/04/13 05:17:23;;;;;;;8.05;7.25;;;;;;;10.08;58.96875;94816.58;;;;
2020/04/13 05:18:23;;;;;;;8.05;7.25;;;;;;;10.08;58.96875;94816.58;;;;
2020/04/13 05:19:24;;;;;;;8.05;7.25;;;;;;;10.08;58.96875;94816.58;;;;
2020/04/13 05:20:24;;;;;;;8.05;7.25;;;;;;;10.08;58.96875;94816.58;;;;
2020/04/13 05:21:24;;;;;;;8.05;7.25;;;;;;;10.08;58.96875;94816.58;;;;
2020/04/13 05:22:25;;;;;;;8.05;7.25;;;;;;;10.08;58.96875;94816.58;;;;
2020/04/13 05:23:25;;;;;;;8.05;7.25;;;;;;;10.08;58.96875;94816.58;;;;
2020/04/13 05:24:26;;;;;;;8;7;;;;;;;10.4;58.82813;94823.17;;;;
2020/04/13 05:25:26;;;;;;;8;7;;;;;;;10.4;58.82813;94823.17;;;;
2020/04/13 05:26:27;;;;;;;8;7;;;;;;;10.4;58.82813;94823.17;;;;
2020/04/13 05:27:27;;;;;;;8;7;;;;;;;10.4;58.82813;94823.17;;;;
2020/04/13 05:28:27;;;;;;;8;7;;;;;;;10.4;58.82813;94823.17;;;;
2020/04/13 05:29:28;;;;;;;8;7;;;;;;;10.4;58.82813;94823.17;;;;
2020/04/13 05:30:35;;;;;;;8;7;;;;;;;10.4;58.82813;94823.17;;;;
2020/04/13 05:31:42;;;;;;;8;7;;;;;;;10.4;58.82813;94823.17;;;;
2020/04/13 05:32:43;;;;;;;8;7;;;;;;;10.4;58.82813;94823.17;;;;
2020/04/13 05:33:44;;;;;;;8;7;;;;;;;10.4;58.82813;94823.17;;;;
2020/04/13 05:34:44;;;;;;;7.45;6.750001;;;;;;;10.62;58.64355;94835.71;;;;
2020/04/13 05:35:44;;;;;;;7.45;6.750001;;;;;;;10.62;58.64355;94835.71;;;;
2020/04/13 05:36:45;;;;;;;7.45;6.750001;;;;;;;10.62;58.64355;94835.71;;;;
2020/04/13 05:37:45;;;;;;;7.45;6.750001;;;;;;;10.62;58.64355;94835.71;;;;
2020/04/13 05:38:46;;;;;;;7.45;6.750001;;;;;;;10.62;58.64355;94835.71;;;;
2020/04/13 05:39:46;;;;;;;7.45;6.750001;;;;;;;10.62;58.64355;94835.71;;;;
2020/04/13 05:40:46;;;;;;;7.45;6.750001;;;;;;;10.62;58.64355;94835.71;;;;
2020/04/13 05:41:47;;;;;;;7.45;6.750001;;;;;;;10.62;58.64355;94835.71;;;;
2020/04/13 05:42:47;;;;;;;7.45;6.750001;;;;;;;10.62;58.64355;94835.71;;;;
2020/04/13 05:43:48;;;;;;;7.45;6.750001;;;;;;;10.62;58.64355;94835.71;;;;
2020/04/13 05:44:48;;;;;;;7.45;6.750001;;;;;;;10.62;58.64355;94835.71;;;;